sensor_id;sensor_type;location;lat;lon;timestamp;temperature;humidity
18067;DHT22;9158;51.528;7.192;2023-04-03T00:00:29;2.40;1.00
18067;DHT22;9158;51.528;7.192;2023-04-03T00:01:01;2.40;1.00
18067;DHT22;9158;51.528;7.192;2023-04-03T00:01:32;2.40;1.00
18067;DHT22;9158;51.528;7.192;2023-04-03T00:02:05;2.40;1.00
18067;DHT22;9158;51.528;7.192;2023-04-03T00:02:39;2.40;1.00
18067;DHT22;9158;51.528;7.192;2023-04-03T00:03:11;2.40;1.00
18067;DHT22;9158;51.528;7.192;2023-04-03T00:03:43;2.40;1.00
18067;DHT22;9158;51.528;7.192;2023-04-03T00:04:14;2.40;1.00
18067;DHT22;9158;51.528;7.192;2023-04-03T00:04:45;2.40;1.00
18067;DHT22;9158;51.528;7.192;2023-04-03T00:05:17;2.40;1.00
18067;DHT22;9158;51.528;7.192;2023-04-03T00:05:48;2.40;1.00
18067;DHT22;9158;51.528;7.192;2023-04-03T00:06:19;2.40;1.00
18067;DHT22;9158;51.528;7.192;2023-04-03T00:06:51;2.40;1.00
18067;DHT22;9158;51.528;7.192;2023-04-03T00:07:22;2.40;1.00
18067;DHT22;9158;51.528;7.192;2023-04-03T00:07:53;2.40;1.00
18067;DHT22;9158;51.528;7.192;2023-04-03T00:08:24;2.40;1.00
18067;DHT22;9158;51.528;7.192;2023-04-03T00:08:56;2.40;1.00
18067;DHT22;9158;51.528;7.192;2023-04-03T00:09:27;2.30;1.00
18067;DHT22;9158;51.528;7.192;2023-04-03T00:09:58;2.30;1.00
18067;DHT22;9158;51.528;7.192;2023-04-03T00:10:30;2.30;1.00
18067;DHT22;9158;51.528;7.192;2023-04-03T00:11:02;2.20;1.00
18067;DHT22;9158;51.528;7.192;2023-04-03T00:11:34;2.10;1.00
18067;DHT22;9158;51.528;7.192;2023-04-03T00:12:06;2.10;1.00
18067;DHT22;9158;51.528;7.192;2023-04-03T00:12:37;2.00;1.00
18067;DHT22;9158;51.528;7.192;2023-04-03T00:13:09;2.00;1.00
18067;DHT22;9158;51.528;7.192;2023-04-03T00:13:41;2.00;1.00
18067;DHT22;9158;51.528;7.192;2023-04-03T00:14:12;1.90;1.00
18067;DHT22;9158;51.528;7.192;2023-04-03T00:14:43;1.90;1.00
18067;DHT22;9158;51.528;7.192;2023-04-03T00:15:14;1.90;1.00
18067;DHT22;9158;51.528;7.192;2023-04-03T00:15:47;1.90;1.00
18067;DHT22;9158;51.528;7.192;2023-04-03T00:16:18;1.90;1.00
18067;DHT22;9158;51.528;7.192;2023-04-03T00:16:49;1.90;1.00
18067;DHT22;9158;51.528;7.192;2023-04-03T00:17:21;1.90;1.00
18067;DHT22;9158;51.528;7.192;2023-04-03T00:17:52;1.80;1.00
18067;DHT22;9158;51.528;7.192;2023-04-03T00:18:23;1.80;1.00
18067;DHT22;9158;51.528;7.192;2023-04-03T00:18:54;1.80;1.00
18067;DHT22;9158;51.528;7.192;2023-04-03T00:19:26;1.80;1.00
18067;DHT22;9158;51.528;7.192;2023-04-03T00:19:57;1.80;1.00
18067;DHT22;9158;51.528;7.192;2023-04-03T00:20:28;1.80;1.00
18067;DHT22;9158;51.528;7.192;2023-04-03T00:21:00;1.80;1.00
18067;DHT22;9158;51.528;7.192;2023-04-03T00:21:31;1.70;1.00
18067;DHT22;9158;51.528;7.192;2023-04-03T00:22:02;1.70;1.00
18067;DHT22;9158;51.528;7.192;2023-04-03T00:22:34;1.70;1.00
18067;DHT22;9158;51.528;7.192;2023-04-03T00:23:05;1.70;1.00
18067;DHT22;9158;51.528;7.192;2023-04-03T00:23:36;1.70;1.00
18067;DHT22;9158;51.528;7.192;2023-04-03T00:24:07;1.70;1.00
18067;DHT22;9158;51.528;7.192;2023-04-03T00:24:40;1.70;1.00
18067;DHT22;9158;51.528;7.192;2023-04-03T00:25:11;1.70;1.00
18067;DHT22;9158;51.528;7.192;2023-04-03T00:25:42;1.70;1.00
18067;DHT22;9158;51.528;7.192;2023-04-03T00:26:13;1.60;1.00
18067;DHT22;9158;51.528;7.192;2023-04-03T00:26:47;1.60;1.00
18067;DHT22;9158;51.528;7.192;2023-04-03T00:27:18;1.60;1.00
18067;DHT22;9158;51.528;7.192;2023-04-03T00:27:49;1.60;1.00
18067;DHT22;9158;51.528;7.192;2023-04-03T00:28:20;1.60;99.90
18067;DHT22;9158;51.528;7.192;2023-04-03T00:28:52;1.60;88.00
18067;DHT22;9158;51.528;7.192;2023-04-03T00:29:24;1.60;99.90
18067;DHT22;9158;51.528;7.192;2023-04-03T00:29:55;1.60;99.90
18067;DHT22;9158;51.528;7.192;2023-04-03T00:30:27;1.60;1.00
18067;DHT22;9158;51.528;7.192;2023-04-03T00:30:59;1.60;28.70
18067;DHT22;9158;51.528;7.192;2023-04-03T00:31:30;1.60;8.30
18067;DHT22;9158;51.528;7.192;2023-04-03T00:32:02;1.60;47.00
18067;DHT22;9158;51.528;7.192;2023-04-03T00:32:33;1.60;43.20
18067;DHT22;9158;51.528;7.192;2023-04-03T00:33:04;1.60;99.90
18067;DHT22;9158;51.528;7.192;2023-04-03T00:33:36;1.50;99.90
18067;DHT22;9158;51.528;7.192;2023-04-03T00:34:08;1.50;99.90
18067;DHT22;9158;51.528;7.192;2023-04-03T00:34:39;1.50;99.90
18067;DHT22;9158;51.528;7.192;2023-04-03T00:35:11;1.50;99.90
18067;DHT22;9158;51.528;7.192;2023-04-03T00:35:42;1.50;99.90
18067;DHT22;9158;51.528;7.192;2023-04-03T00:36:13;1.50;99.90
18067;DHT22;9158;51.528;7.192;2023-04-03T00:36:45;1.50;99.90
18067;DHT22;9158;51.528;7.192;2023-04-03T00:37:16;1.50;99.90
18067;DHT22;9158;51.528;7.192;2023-04-03T00:37:48;1.50;99.90
18067;DHT22;9158;51.528;7.192;2023-04-03T00:38:22;1.50;99.90
18067;DHT22;9158;51.528;7.192;2023-04-03T00:38:53;1.50;99.90
18067;DHT22;9158;51.528;7.192;2023-04-03T00:39:24;1.50;99.90
18067;DHT22;9158;51.528;7.192;2023-04-03T00:39:56;1.50;99.90
18067;DHT22;9158;51.528;7.192;2023-04-03T00:40:27;1.50;99.90
18067;DHT22;9158;51.528;7.192;2023-04-03T00:41:03;1.50;99.90
18067;DHT22;9158;51.528;7.192;2023-04-03T00:41:36;1.50;99.90
18067;DHT22;9158;51.528;7.192;2023-04-03T00:42:08;1.50;99.90
18067;DHT22;9158;51.528;7.192;2023-04-03T00:42:41;1.50;99.90
18067;DHT22;9158;51.528;7.192;2023-04-03T00:43:15;1.50;99.90
18067;DHT22;9158;51.528;7.192;2023-04-03T00:43:46;1.50;99.90
18067;DHT22;9158;51.528;7.192;2023-04-03T00:44:23;1.50;99.90
18067;DHT22;9158;51.528;7.192;2023-04-03T00:45:35;1.50;99.90
18067;DHT22;9158;51.528;7.192;2023-04-03T00:46:06;1.50;99.90
18067;DHT22;9158;51.528;7.192;2023-04-03T00:46:38;1.50;99.90
18067;DHT22;9158;51.528;7.192;2023-04-03T00:47:13;1.50;1.00
18067;DHT22;9158;51.528;7.192;2023-04-03T00:47:44;1.50;99.90
18067;DHT22;9158;51.528;7.192;2023-04-03T00:48:19;1.50;99.90
18067;DHT22;9158;51.528;7.192;2023-04-03T00:48:52;1.50;99.90
18067;DHT22;9158;51.528;7.192;2023-04-03T00:49:23;1.50;99.90
18067;DHT22;9158;51.528;7.192;2023-04-03T00:49:54;1.50;99.90
18067;DHT22;9158;51.528;7.192;2023-04-03T00:50:27;1.50;1.00
18067;DHT22;9158;51.528;7.192;2023-04-03T00:50:59;1.50;99.90
18067;DHT22;9158;51.528;7.192;2023-04-03T00:51:31;1.50;1.00
18067;DHT22;9158;51.528;7.192;2023-04-03T00:52:03;1.50;1.00
18067;DHT22;9158;51.528;7.192;2023-04-03T00:52:37;1.50;1.00
18067;DHT22;9158;51.528;7.192;2023-04-03T00:53:11;1.50;1.00
18067;DHT22;9158;51.528;7.192;2023-04-03T00:53:47;1.50;1.00
18067;DHT22;9158;51.528;7.192;2023-04-03T00:54:19;1.50;1.00
18067;DHT22;9158;51.528;7.192;2023-04-03T00:54:52;1.50;1.00
18067;DHT22;9158;51.528;7.192;2023-04-03T00:55:26;1.60;1.00
18067;DHT22;9158;51.528;7.192;2023-04-03T00:55:58;1.60;1.00
18067;DHT22;9158;51.528;7.192;2023-04-03T00:56:31;1.60;1.00
18067;DHT22;9158;51.528;7.192;2023-04-03T00:57:03;1.60;1.00
18067;DHT22;9158;51.528;7.192;2023-04-03T00:57:38;1.60;1.00
18067;DHT22;9158;51.528;7.192;2023-04-03T00:58:09;1.60;1.00
18067;DHT22;9158;51.528;7.192;2023-04-03T00:58:44;1.50;1.00
18067;DHT22;9158;51.528;7.192;2023-04-03T00:59:22;1.50;1.00
18067;DHT22;9158;51.528;7.192;2023-04-03T01:00:00;1.50;1.00
18067;DHT22;9158;51.528;7.192;2023-04-03T01:00:34;1.50;1.00
18067;DHT22;9158;51.528;7.192;2023-04-03T01:01:11;1.50;1.00
18067;DHT22;9158;51.528;7.192;2023-04-03T01:01:44;1.50;1.00
18067;DHT22;9158;51.528;7.192;2023-04-03T01:02:16;1.50;1.00
18067;DHT22;9158;51.528;7.192;2023-04-03T01:02:47;1.50;1.00
18067;DHT22;9158;51.528;7.192;2023-04-03T01:03:19;1.50;1.00
18067;DHT22;9158;51.528;7.192;2023-04-03T01:03:52;1.50;1.00
18067;DHT22;9158;51.528;7.192;2023-04-03T01:04:28;1.50;1.00
18067;DHT22;9158;51.528;7.192;2023-04-03T01:05:00;1.50;1.00
18067;DHT22;9158;51.528;7.192;2023-04-03T01:05:32;1.50;1.00
18067;DHT22;9158;51.528;7.192;2023-04-03T01:06:04;1.50;1.00
18067;DHT22;9158;51.528;7.192;2023-04-03T01:06:37;1.50;1.00
18067;DHT22;9158;51.528;7.192;2023-04-03T01:07:14;1.50;1.00
18067;DHT22;9158;51.528;7.192;2023-04-03T01:07:46;1.50;1.00
18067;DHT22;9158;51.528;7.192;2023-04-03T01:08:19;1.50;1.00
18067;DHT22;9158;51.528;7.192;2023-04-03T01:08:50;1.50;99.90
18067;DHT22;9158;51.528;7.192;2023-04-03T01:09:21;1.50;1.00
18067;DHT22;9158;51.528;7.192;2023-04-03T01:09:56;1.50;1.00
18067;DHT22;9158;51.528;7.192;2023-04-03T01:10:28;1.50;1.00
18067;DHT22;9158;51.528;7.192;2023-04-03T01:10:59;1.50;1.00
18067;DHT22;9158;51.528;7.192;2023-04-03T01:11:32;1.50;1.00
18067;DHT22;9158;51.528;7.192;2023-04-03T01:12:15;1.50;1.00
18067;DHT22;9158;51.528;7.192;2023-04-03T01:12:50;1.50;1.00
18067;DHT22;9158;51.528;7.192;2023-04-03T01:13:25;1.50;1.00
18067;DHT22;9158;51.528;7.192;2023-04-03T01:13:56;1.50;99.90
18067;DHT22;9158;51.528;7.192;2023-04-03T01:14:29;1.50;99.90
18067;DHT22;9158;51.528;7.192;2023-04-03T01:15:04;1.60;99.90
18067;DHT22;9158;51.528;7.192;2023-04-03T01:15:35;1.60;1.00
18067;DHT22;9158;51.528;7.192;2023-04-03T01:16:07;1.60;99.90
18067;DHT22;9158;51.528;7.192;2023-04-03T01:16:40;1.60;1.00
18067;DHT22;9158;51.528;7.192;2023-04-03T01:17:27;1.60;99.90
18067;DHT22;9158;51.528;7.192;2023-04-03T01:17:59;1.60;1.00
18067;DHT22;9158;51.528;7.192;2023-04-03T01:18:32;1.60;1.00
18067;DHT22;9158;51.528;7.192;2023-04-03T01:19:05;1.60;99.90
18067;DHT22;9158;51.528;7.192;2023-04-03T01:19:41;1.60;99.90
18067;DHT22;9158;51.528;7.192;2023-04-03T01:20:40;1.60;99.90
18067;DHT22;9158;51.528;7.192;2023-04-03T01:21:36;1.70;99.90
18067;DHT22;9158;51.528;7.192;2023-04-03T01:22:19;1.70;99.90
18067;DHT22;9158;51.528;7.192;2023-04-03T01:23:01;1.70;99.90
18067;DHT22;9158;51.528;7.192;2023-04-03T01:23:45;1.60;99.90
18067;DHT22;9158;51.528;7.192;2023-04-03T01:24:33;1.70;99.90
18067;DHT22;9158;51.528;7.192;2023-04-03T01:25:06;1.70;85.70
18067;DHT22;9158;51.528;7.192;2023-04-03T01:25:40;1.70;87.60
18067;DHT22;9158;51.528;7.192;2023-04-03T01:26:13;1.70;79.80
18067;DHT22;9158;51.528;7.192;2023-04-03T01:26:44;1.70;70.10
18067;DHT22;9158;51.528;7.192;2023-04-03T01:27:15;1.70;72.00
18067;DHT22;9158;51.528;7.192;2023-04-03T01:27:49;1.70;64.80
18067;DHT22;9158;51.528;7.192;2023-04-03T01:28:23;1.70;59.90
18067;DHT22;9158;51.528;7.192;2023-04-03T01:28:55;1.70;85.60
18067;DHT22;9158;51.528;7.192;2023-04-03T01:29:27;1.70;87.60
18067;DHT22;9158;51.528;7.192;2023-04-03T01:29:58;1.80;99.90
18067;DHT22;9158;51.528;7.192;2023-04-03T01:30:32;1.80;47.40
18067;DHT22;9158;51.528;7.192;2023-04-03T01:31:12;1.90;60.80
18067;DHT22;9158;51.528;7.192;2023-04-03T01:31:51;1.90;1.00
18067;DHT22;9158;51.528;7.192;2023-04-03T01:32:23;1.90;1.00
18067;DHT22;9158;51.528;7.192;2023-04-03T01:32:54;1.90;1.00
18067;DHT22;9158;51.528;7.192;2023-04-03T01:33:26;1.90;1.00
18067;DHT22;9158;51.528;7.192;2023-04-03T01:33:57;1.90;1.00
18067;DHT22;9158;51.528;7.192;2023-04-03T01:34:30;1.90;1.00
18067;DHT22;9158;51.528;7.192;2023-04-03T01:35:03;1.90;1.00
18067;DHT22;9158;51.528;7.192;2023-04-03T01:35:35;1.90;1.00
18067;DHT22;9158;51.528;7.192;2023-04-03T01:36:07;1.90;1.00
18067;DHT22;9158;51.528;7.192;2023-04-03T01:36:38;1.80;1.00
18067;DHT22;9158;51.528;7.192;2023-04-03T01:37:10;1.90;1.00
18067;DHT22;9158;51.528;7.192;2023-04-03T01:37:41;1.80;1.00
18067;DHT22;9158;51.528;7.192;2023-04-03T01:38:12;1.80;1.00
18067;DHT22;9158;51.528;7.192;2023-04-03T01:38:44;1.80;1.00
18067;DHT22;9158;51.528;7.192;2023-04-03T01:39:16;1.80;1.00
18067;DHT22;9158;51.528;7.192;2023-04-03T01:39:47;1.80;1.00
18067;DHT22;9158;51.528;7.192;2023-04-03T01:40:18;1.80;1.00
18067;DHT22;9158;51.528;7.192;2023-04-03T01:40:51;1.60;1.00
18067;DHT22;9158;51.528;7.192;2023-04-03T01:41:22;1.70;1.00
18067;DHT22;9158;51.528;7.192;2023-04-03T01:41:54;1.80;1.00
18067;DHT22;9158;51.528;7.192;2023-04-03T01:42:33;1.80;1.00
18067;DHT22;9158;51.528;7.192;2023-04-03T01:43:04;1.80;1.00
18067;DHT22;9158;51.528;7.192;2023-04-03T01:43:35;1.70;1.00
18067;DHT22;9158;51.528;7.192;2023-04-03T01:44:07;1.70;1.00
18067;DHT22;9158;51.528;7.192;2023-04-03T01:44:38;1.70;1.00
18067;DHT22;9158;51.528;7.192;2023-04-03T01:45:10;1.70;1.00
18067;DHT22;9158;51.528;7.192;2023-04-03T01:45:41;1.70;1.00
18067;DHT22;9158;51.528;7.192;2023-04-03T01:46:12;1.70;1.00
18067;DHT22;9158;51.528;7.192;2023-04-03T01:46:43;1.70;1.00
18067;DHT22;9158;51.528;7.192;2023-04-03T01:47:17;1.70;1.00
18067;DHT22;9158;51.528;7.192;2023-04-03T01:47:48;1.70;1.00
18067;DHT22;9158;51.528;7.192;2023-04-03T01:48:20;1.80;1.00
18067;DHT22;9158;51.528;7.192;2023-04-03T01:48:52;1.80;1.00
18067;DHT22;9158;51.528;7.192;2023-04-03T01:49:23;1.80;1.00
18067;DHT22;9158;51.528;7.192;2023-04-03T01:49:54;1.80;1.00
18067;DHT22;9158;51.528;7.192;2023-04-03T01:50:26;1.80;1.00
18067;DHT22;9158;51.528;7.192;2023-04-03T01:50:57;1.80;1.00
18067;DHT22;9158;51.528;7.192;2023-04-03T01:51:28;1.90;1.00
18067;DHT22;9158;51.528;7.192;2023-04-03T01:52:00;1.90;1.00
18067;DHT22;9158;51.528;7.192;2023-04-03T01:52:32;1.90;1.00
18067;DHT22;9158;51.528;7.192;2023-04-03T01:53:03;1.90;1.00
18067;DHT22;9158;51.528;7.192;2023-04-03T01:53:34;1.90;1.00
18067;DHT22;9158;51.528;7.192;2023-04-03T01:54:06;2.00;1.00
18067;DHT22;9158;51.528;7.192;2023-04-03T01:54:37;2.00;1.00
18067;DHT22;9158;51.528;7.192;2023-04-03T01:55:09;2.00;1.00
18067;DHT22;9158;51.528;7.192;2023-04-03T01:55:41;2.00;1.00
18067;DHT22;9158;51.528;7.192;2023-04-03T01:56:12;2.00;99.90
18067;DHT22;9158;51.528;7.192;2023-04-03T01:56:43;2.00;99.90
18067;DHT22;9158;51.528;7.192;2023-04-03T01:57:15;2.10;99.90
18067;DHT22;9158;51.528;7.192;2023-04-03T01:57:46;2.00;99.90
18067;DHT22;9158;51.528;7.192;2023-04-03T01:58:17;2.00;99.90
18067;DHT22;9158;51.528;7.192;2023-04-03T01:58:49;2.00;99.90
18067;DHT22;9158;51.528;7.192;2023-04-03T01:59:21;2.00;99.90
18067;DHT22;9158;51.528;7.192;2023-04-03T01:59:53;2.10;99.90
18067;DHT22;9158;51.528;7.192;2023-04-03T02:00:24;2.10;99.90
18067;DHT22;9158;51.528;7.192;2023-04-03T02:00:57;2.10;99.90
18067;DHT22;9158;51.528;7.192;2023-04-03T02:01:28;2.10;99.90
18067;DHT22;9158;51.528;7.192;2023-04-03T02:01:59;2.10;99.90
18067;DHT22;9158;51.528;7.192;2023-04-03T02:02:33;2.10;99.90
18067;DHT22;9158;51.528;7.192;2023-04-03T02:03:04;2.10;99.90
18067;DHT22;9158;51.528;7.192;2023-04-03T02:03:35;2.00;99.90
18067;DHT22;9158;51.528;7.192;2023-04-03T02:04:07;2.00;99.90
18067;DHT22;9158;51.528;7.192;2023-04-03T02:04:38;2.00;99.90
18067;DHT22;9158;51.528;7.192;2023-04-03T02:05:10;2.00;99.90
18067;DHT22;9158;51.528;7.192;2023-04-03T02:05:41;2.00;99.90
18067;DHT22;9158;51.528;7.192;2023-04-03T02:06:13;2.10;99.90
18067;DHT22;9158;51.528;7.192;2023-04-03T02:06:44;2.10;99.90
18067;DHT22;9158;51.528;7.192;2023-04-03T02:07:15;2.00;99.90
18067;DHT22;9158;51.528;7.192;2023-04-03T02:07:47;2.00;99.90
18067;DHT22;9158;51.528;7.192;2023-04-03T02:08:18;2.00;99.90
18067;DHT22;9158;51.528;7.192;2023-04-03T02:08:50;2.00;99.90
18067;DHT22;9158;51.528;7.192;2023-04-03T02:09:22;2.00;99.90
18067;DHT22;9158;51.528;7.192;2023-04-03T02:09:53;2.00;99.90
18067;DHT22;9158;51.528;7.192;2023-04-03T02:10:24;2.00;99.90
18067;DHT22;9158;51.528;7.192;2023-04-03T02:10:55;2.00;99.90
18067;DHT22;9158;51.528;7.192;2023-04-03T02:11:27;2.00;99.90
18067;DHT22;9158;51.528;7.192;2023-04-03T02:11:59;2.00;99.90
18067;DHT22;9158;51.528;7.192;2023-04-03T02:12:30;2.00;99.90
18067;DHT22;9158;51.528;7.192;2023-04-03T02:13:03;2.00;99.90
18067;DHT22;9158;51.528;7.192;2023-04-03T02:13:34;2.00;99.90
18067;DHT22;9158;51.528;7.192;2023-04-03T02:14:06;2.00;99.90
18067;DHT22;9158;51.528;7.192;2023-04-03T02:14:38;2.00;99.90
18067;DHT22;9158;51.528;7.192;2023-04-03T02:15:09;1.90;99.90
18067;DHT22;9158;51.528;7.192;2023-04-03T02:15:41;1.90;99.90
18067;DHT22;9158;51.528;7.192;2023-04-03T02:16:13;1.90;99.90
18067;DHT22;9158;51.528;7.192;2023-04-03T02:16:44;1.90;99.90
18067;DHT22;9158;51.528;7.192;2023-04-03T02:17:16;1.90;99.90
18067;DHT22;9158;51.528;7.192;2023-04-03T02:17:48;1.90;99.90
18067;DHT22;9158;51.528;7.192;2023-04-03T02:18:20;1.90;99.90
18067;DHT22;9158;51.528;7.192;2023-04-03T02:18:52;1.90;99.90
18067;DHT22;9158;51.528;7.192;2023-04-03T02:19:23;1.90;99.90
18067;DHT22;9158;51.528;7.192;2023-04-03T02:19:54;1.90;99.90
18067;DHT22;9158;51.528;7.192;2023-04-03T02:20:28;1.90;99.90
18067;DHT22;9158;51.528;7.192;2023-04-03T02:20:59;1.90;99.90
18067;DHT22;9158;51.528;7.192;2023-04-03T02:21:31;2.00;99.90
18067;DHT22;9158;51.528;7.192;2023-04-03T02:22:03;2.00;99.90
18067;DHT22;9158;51.528;7.192;2023-04-03T02:22:35;2.00;99.90
18067;DHT22;9158;51.528;7.192;2023-04-03T02:23:06;2.00;99.90
18067;DHT22;9158;51.528;7.192;2023-04-03T02:23:38;2.00;99.90
18067;DHT22;9158;51.528;7.192;2023-04-03T02:24:09;2.00;99.90
18067;DHT22;9158;51.528;7.192;2023-04-03T02:24:40;2.00;99.90
18067;DHT22;9158;51.528;7.192;2023-04-03T02:25:12;2.00;99.90
18067;DHT22;9158;51.528;7.192;2023-04-03T02:25:45;1.90;99.90
18067;DHT22;9158;51.528;7.192;2023-04-03T02:26:16;1.90;99.90
18067;DHT22;9158;51.528;7.192;2023-04-03T02:26:49;1.90;99.90
18067;DHT22;9158;51.528;7.192;2023-04-03T02:27:21;1.90;99.90
18067;DHT22;9158;51.528;7.192;2023-04-03T02:27:53;1.90;99.90
18067;DHT22;9158;51.528;7.192;2023-04-03T02:28:25;1.90;99.90
18067;DHT22;9158;51.528;7.192;2023-04-03T02:28:56;1.90;99.90
18067;DHT22;9158;51.528;7.192;2023-04-03T02:29:28;1.90;99.90
18067;DHT22;9158;51.528;7.192;2023-04-03T02:30:00;1.90;99.90
18067;DHT22;9158;51.528;7.192;2023-04-03T02:30:31;1.80;99.90
18067;DHT22;9158;51.528;7.192;2023-04-03T02:31:03;1.80;99.90
18067;DHT22;9158;51.528;7.192;2023-04-03T02:31:37;1.80;99.90
18067;DHT22;9158;51.528;7.192;2023-04-03T02:32:10;1.70;99.90
18067;DHT22;9158;51.528;7.192;2023-04-03T02:32:42;1.70;99.90
18067;DHT22;9158;51.528;7.192;2023-04-03T02:33:16;1.70;99.90
18067;DHT22;9158;51.528;7.192;2023-04-03T02:33:48;1.80;99.90
18067;DHT22;9158;51.528;7.192;2023-04-03T02:34:20;1.80;99.90
18067;DHT22;9158;51.528;7.192;2023-04-03T02:34:52;1.80;1.00
18067;DHT22;9158;51.528;7.192;2023-04-03T02:35:23;1.70;99.90
18067;DHT22;9158;51.528;7.192;2023-04-03T02:35:56;1.70;99.90
18067;DHT22;9158;51.528;7.192;2023-04-03T02:36:28;1.70;99.90
18067;DHT22;9158;51.528;7.192;2023-04-03T02:37:03;1.70;99.90
18067;DHT22;9158;51.528;7.192;2023-04-03T02:37:34;1.70;99.90
18067;DHT22;9158;51.528;7.192;2023-04-03T02:38:06;1.70;99.90
18067;DHT22;9158;51.528;7.192;2023-04-03T02:38:38;1.70;99.90
18067;DHT22;9158;51.528;7.192;2023-04-03T02:39:09;1.70;1.00
18067;DHT22;9158;51.528;7.192;2023-04-03T02:39:42;1.60;99.90
18067;DHT22;9158;51.528;7.192;2023-04-03T02:40:13;1.60;99.90
18067;DHT22;9158;51.528;7.192;2023-04-03T02:40:44;1.60;99.90
18067;DHT22;9158;51.528;7.192;2023-04-03T02:41:16;1.70;99.90
18067;DHT22;9158;51.528;7.192;2023-04-03T02:41:47;1.70;99.90
18067;DHT22;9158;51.528;7.192;2023-04-03T02:42:23;1.70;99.90
18067;DHT22;9158;51.528;7.192;2023-04-03T02:42:56;1.70;1.00
18067;DHT22;9158;51.528;7.192;2023-04-03T02:43:29;1.70;99.90
18067;DHT22;9158;51.528;7.192;2023-04-03T02:44:05;1.70;99.90
18067;DHT22;9158;51.528;7.192;2023-04-03T02:44:41;1.70;99.90
18067;DHT22;9158;51.528;7.192;2023-04-03T02:45:14;1.70;99.90
18067;DHT22;9158;51.528;7.192;2023-04-03T02:45:46;1.80;1.00
18067;DHT22;9158;51.528;7.192;2023-04-03T02:46:18;1.80;99.90
18067;DHT22;9158;51.528;7.192;2023-04-03T02:46:49;1.80;99.90
18067;DHT22;9158;51.528;7.192;2023-04-03T02:47:21;1.80;99.90
18067;DHT22;9158;51.528;7.192;2023-04-03T02:47:53;1.90;99.90
18067;DHT22;9158;51.528;7.192;2023-04-03T02:48:26;1.90;99.90
18067;DHT22;9158;51.528;7.192;2023-04-03T02:48:58;1.90;99.90
18067;DHT22;9158;51.528;7.192;2023-04-03T02:49:30;1.90;99.90
18067;DHT22;9158;51.528;7.192;2023-04-03T02:50:02;1.90;1.00
18067;DHT22;9158;51.528;7.192;2023-04-03T02:50:33;1.90;99.90
18067;DHT22;9158;51.528;7.192;2023-04-03T02:51:05;1.90;99.60
18067;DHT22;9158;51.528;7.192;2023-04-03T02:51:36;1.90;91.30
18067;DHT22;9158;51.528;7.192;2023-04-03T02:52:07;1.90;90.80
18067;DHT22;9158;51.528;7.192;2023-04-03T02:52:40;1.90;96.60
18067;DHT22;9158;51.528;7.192;2023-04-03T02:53:11;1.90;99.90
18067;DHT22;9158;51.528;7.192;2023-04-03T02:53:42;1.90;99.90
18067;DHT22;9158;51.528;7.192;2023-04-03T02:54:18;1.90;99.90
18067;DHT22;9158;51.528;7.192;2023-04-03T02:54:55;1.80;99.90
18067;DHT22;9158;51.528;7.192;2023-04-03T02:55:26;1.90;99.90
18067;DHT22;9158;51.528;7.192;2023-04-03T02:55:59;1.80;99.90
18067;DHT22;9158;51.528;7.192;2023-04-03T02:56:32;1.80;99.90
18067;DHT22;9158;51.528;7.192;2023-04-03T02:57:03;1.80;99.90
18067;DHT22;9158;51.528;7.192;2023-04-03T02:57:34;1.80;99.90
18067;DHT22;9158;51.528;7.192;2023-04-03T02:58:07;1.70;99.90
18067;DHT22;9158;51.528;7.192;2023-04-03T02:58:38;1.70;99.90
18067;DHT22;9158;51.528;7.192;2023-04-03T02:59:10;1.70;99.90
18067;DHT22;9158;51.528;7.192;2023-04-03T02:59:44;1.70;99.90
18067;DHT22;9158;51.528;7.192;2023-04-03T03:00:16;1.70;99.90
18067;DHT22;9158;51.528;7.192;2023-04-03T03:00:47;1.70;99.90
18067;DHT22;9158;51.528;7.192;2023-04-03T03:01:20;1.70;99.90
18067;DHT22;9158;51.528;7.192;2023-04-03T03:01:51;1.70;99.90
18067;DHT22;9158;51.528;7.192;2023-04-03T03:02:22;1.70;99.90
18067;DHT22;9158;51.528;7.192;2023-04-03T03:02:54;1.70;99.90
18067;DHT22;9158;51.528;7.192;2023-04-03T03:03:26;1.70;99.90
18067;DHT22;9158;51.528;7.192;2023-04-03T03:03:58;1.70;99.90
18067;DHT22;9158;51.528;7.192;2023-04-03T03:04:30;1.60;99.90
18067;DHT22;9158;51.528;7.192;2023-04-03T03:05:01;1.70;99.90
18067;DHT22;9158;51.528;7.192;2023-04-03T03:05:33;1.70;99.90
18067;DHT22;9158;51.528;7.192;2023-04-03T03:06:06;1.70;99.90
18067;DHT22;9158;51.528;7.192;2023-04-03T03:06:38;1.70;99.90
18067;DHT22;9158;51.528;7.192;2023-04-03T03:07:09;1.70;99.90
18067;DHT22;9158;51.528;7.192;2023-04-03T03:07:41;1.60;99.90
18067;DHT22;9158;51.528;7.192;2023-04-03T03:08:12;1.60;99.90
18067;DHT22;9158;51.528;7.192;2023-04-03T03:08:43;1.70;99.90
18067;DHT22;9158;51.528;7.192;2023-04-03T03:09:15;1.70;99.90
18067;DHT22;9158;51.528;7.192;2023-04-03T03:09:47;1.70;99.90
18067;DHT22;9158;51.528;7.192;2023-04-03T03:10:18;1.80;99.90
18067;DHT22;9158;51.528;7.192;2023-04-03T03:10:50;1.80;99.90
18067;DHT22;9158;51.528;7.192;2023-04-03T03:11:22;1.80;99.90
18067;DHT22;9158;51.528;7.192;2023-04-03T03:11:53;1.80;1.00
18067;DHT22;9158;51.528;7.192;2023-04-03T03:12:25;1.80;99.90
18067;DHT22;9158;51.528;7.192;2023-04-03T03:12:56;1.80;99.90
18067;DHT22;9158;51.528;7.192;2023-04-03T03:13:27;1.80;99.90
18067;DHT22;9158;51.528;7.192;2023-04-03T03:14:00;1.70;99.90
18067;DHT22;9158;51.528;7.192;2023-04-03T03:14:31;1.70;99.90
18067;DHT22;9158;51.528;7.192;2023-04-03T03:15:02;1.80;99.90
18067;DHT22;9158;51.528;7.192;2023-04-03T03:15:34;1.80;99.90
18067;DHT22;9158;51.528;7.192;2023-04-03T03:16:07;1.80;99.90
18067;DHT22;9158;51.528;7.192;2023-04-03T03:16:39;1.80;99.90
18067;DHT22;9158;51.528;7.192;2023-04-03T03:17:11;1.80;99.90
18067;DHT22;9158;51.528;7.192;2023-04-03T03:17:43;1.80;95.60
18067;DHT22;9158;51.528;7.192;2023-04-03T03:18:14;1.80;99.90
18067;DHT22;9158;51.528;7.192;2023-04-03T03:18:47;1.80;99.90
18067;DHT22;9158;51.528;7.192;2023-04-03T03:19:19;1.80;99.90
18067;DHT22;9158;51.528;7.192;2023-04-03T03:19:50;1.80;99.90
18067;DHT22;9158;51.528;7.192;2023-04-03T03:20:22;1.80;99.90
18067;DHT22;9158;51.528;7.192;2023-04-03T03:20:54;1.80;99.90
18067;DHT22;9158;51.528;7.192;2023-04-03T03:21:26;1.80;99.90
18067;DHT22;9158;51.528;7.192;2023-04-03T03:21:58;1.80;99.90
18067;DHT22;9158;51.528;7.192;2023-04-03T03:22:29;1.70;99.90
18067;DHT22;9158;51.528;7.192;2023-04-03T03:23:00;1.70;99.90
18067;DHT22;9158;51.528;7.192;2023-04-03T03:23:33;1.70;99.90
18067;DHT22;9158;51.528;7.192;2023-04-03T03:24:04;1.60;99.90
18067;DHT22;9158;51.528;7.192;2023-04-03T03:24:37;1.60;99.90
18067;DHT22;9158;51.528;7.192;2023-04-03T03:25:09;1.60;99.90
18067;DHT22;9158;51.528;7.192;2023-04-03T03:25:41;1.60;99.90
18067;DHT22;9158;51.528;7.192;2023-04-03T03:26:12;1.60;99.90
18067;DHT22;9158;51.528;7.192;2023-04-03T03:26:44;1.60;99.90
18067;DHT22;9158;51.528;7.192;2023-04-03T03:27:16;1.60;99.90
18067;DHT22;9158;51.528;7.192;2023-04-03T03:27:48;1.70;99.90
18067;DHT22;9158;51.528;7.192;2023-04-03T03:28:20;1.70;99.90
18067;DHT22;9158;51.528;7.192;2023-04-03T03:28:51;1.80;99.90
18067;DHT22;9158;51.528;7.192;2023-04-03T03:29:22;1.80;99.90
18067;DHT22;9158;51.528;7.192;2023-04-03T03:29:54;1.80;99.90
18067;DHT22;9158;51.528;7.192;2023-04-03T03:30:25;1.80;1.00
18067;DHT22;9158;51.528;7.192;2023-04-03T03:30:57;1.80;99.90
18067;DHT22;9158;51.528;7.192;2023-04-03T03:31:28;1.70;99.90
18067;DHT22;9158;51.528;7.192;2023-04-03T03:32:01;1.70;99.90
18067;DHT22;9158;51.528;7.192;2023-04-03T03:32:33;1.70;99.90
18067;DHT22;9158;51.528;7.192;2023-04-03T03:33:06;1.70;58.20
18067;DHT22;9158;51.528;7.192;2023-04-03T03:33:38;1.70;99.90